Flight Track Log - Related Links

Times and Time Zones

All times are in EDT time to prevent confusion due to time zone crossing. See the SWA2353 flight status page for this flight to view local times or setup timezone preferences in your user account.

Time Position Orientation Groundspeed Altitude Reporting Facility
EDT Latitude Longitude Course Direction KTS MPH feet Rate Location/Type
Mon 09:44:17 PM 41.8000 -87.7167 197° South 154 177 2,100  Level Chicago TRACON
Mon 09:45:51 PM 41.7203 -87.7494 197° South 234 269 6,100 2,885 Climbing Chicago Center
Mon 09:46:53 PM 41.6561 -87.8081 214° Southwest 271 312 9,600 2,855 Climbing Chicago Center
Mon 09:47:55 PM 41.5842 -87.8717 213° Southwest 307 353 12,000 1,854 Climbing Chicago Center
Mon 09:48:56 PM 41.4894 -87.9286 204° Southwest 324 373 13,400 2,705 Climbing Chicago Center
Mon 09:49:57 PM 41.3908 -87.9544 191° South 350 403 17,500 3,707 Climbing Chicago Center
Mon 09:50:59 PM 41.2875 -87.9811 191° South 368 423 21,000 2,772 Climbing Chicago Center
Mon 09:53:01 PM 41.0803 -88.0356 191° South 376 433 26,000 1,630 Climbing Chicago Center
Mon 09:54:03 PM 40.9692 -88.0647 191° South 403 464 26,000  Level Chicago Center
Mon 09:55:04 PM 40.8567 -88.0931 191° South 410 472 26,000  Level Chicago Center
Mon 09:56:06 PM 40.7447 -88.1214 191° South 411 473 26,000  Level Chicago Center
Mon 09:57:07 PM 40.6331 -88.1506 191° South 411 473 26,000  Level Chicago Center
Mon 09:58:08 PM 40.5225 -88.1917 196° South 414 476 26,000  Level Chicago Center
Mon 09:59:10 PM 40.3919 -88.2531 200° South 416 479 26,000  Level Chicago Center
Mon 10:00:11 PM 40.2817 -88.3061 200° South 422 486 26,000  Level Chicago Center
Mon 10:01:12 PM 40.1803 -88.3533 200° South 422 486 26,000  Level Chicago Center
Mon 10:02:14 PM 40.0697 -88.4053 200° South 422 486 26,000  Level Chicago Center
Mon 10:03:07 PM 39.9581 -88.4561 199° South 425 489 26,000  Level Kansas City Center
Mon 10:05:10 PM 39.7322 -88.5617 200° South 430 495 26,000  Level Kansas City Center
Mon 10:06:11 PM 39.6181 -88.6147 200° South 433 498 26,000  Level Kansas City Center
Mon 10:07:12 PM 39.5219 -88.7022 215° Southwest 426 490 26,000  Level Kansas City Center
Mon 10:08:13 PM 39.4300 -88.7997 219° Southwest 426 490 26,000  Level Kansas City Center
Mon 10:09:15 PM 39.3378 -88.9028 221° Southwest 430 495 26,000 -1,024 Level Kansas City Center
Mon 10:10:16 PM 39.2475 -88.9994 220° Southwest 426 490 23,900 -2,410 Descending Kansas City Center
Mon 10:11:17 PM 39.1439 -89.1083 219° Southwest 415 478 21,100 -2,459 Descending Kansas City Center
Mon 10:12:18 PM 39.0814 -89.2169 233° Southwest 391 450 18,900 -2,115 Descending Kansas City Center
Mon 10:13:19 PM 39.0522 -89.3436 254° West 373 429 16,800 -2,115 Descending Kansas City Center
Mon 10:14:20 PM 39.0242 -89.4675 254° West 366 421 14,600 -2,262 Descending Kansas City Center
Mon 10:15:21 PM 38.9914 -89.5969 252° West 358 412 12,200 -2,146 Descending Kansas City Center
Mon 10:16:23 PM 38.9244 -89.6881 227° Southwest 350 403 10,200 -1,561 Descending Kansas City Center
Mon 10:17:24 PM 38.8753 -89.7792 235° Southwest 334 384 9,000 -1,328 Descending Kansas City Center
Mon 10:18:25 PM 38.8272 -89.8706 236° Southwest 315 362 7,500 -1,525 Descending Kansas City Center
Mon 10:19:26 PM 38.7811 -89.9589 236° Southwest 303 349 5,900 -1,230 Descending Kansas City Center
Mon 10:20:27 PM 38.7350 -90.0456 236° Southwest 299 344 5,000 -639 Descending Kansas City Center
Mon 10:21:28 PM 38.7050 -90.1197 243° Southwest 262 302 4,600 -885 Descending Kansas City Center
Mon 10:22:29 PM 38.7022 -90.1956 267° West 233 268 3,200 -1,220 Descending Kansas City Center
Mon 10:23:31 PM 38.6992 -90.2600 267° West 207 238 2,100 -976 Descending Kansas City Center
Mon 10:24:32 PM 38.7225 -90.3064 303° West 152 175 1,200 -738 Descending Kansas City Center
Mon 10:25:33 PM 38.7411 -90.3442 302° West 137 158 600 -590 Descending Kansas City Center
Mon 10:27:00 PM 38.7333 -90.3667 169° South  Level FlightAware Approximate
Mon 10:34:00 PM 38.7487 -90.3700 169° South  Level Estimated

Login

Don't have an account? Register now (free) for customized features, flight alerts, and more!